createdAt,value
2018-07-12T00:01:26.181Z,95398.00
2018-07-12T00:03:55.594Z,95395.00
2018-07-12T00:06:25.185Z,95406.00
2018-07-12T00:08:54.299Z,95403.00
2018-07-12T00:11:23.605Z,95404.00
2018-07-12T00:13:52.888Z,95403.00
2018-07-12T00:16:22.121Z,95404.00
2018-07-12T00:18:51.486Z,95398.00
2018-07-12T00:21:21.235Z,95403.00
2018-07-12T00:23:50.474Z,95402.00
2018-07-12T00:26:19.821Z,95401.00
2018-07-12T00:28:49.359Z,95409.00
2018-07-12T00:31:18.688Z,95409.00
2018-07-12T00:33:48.009Z,95407.00
2018-07-12T00:36:17.405Z,95412.00
2018-07-12T00:38:46.743Z,95414.00
2018-07-12T00:41:16.635Z,95411.00
2018-07-12T00:43:45.998Z,95410.00
2018-07-12T00:46:15.253Z,95408.00
2018-07-12T00:48:44.657Z,95407.00
2018-07-12T00:51:13.980Z,95417.00
2018-07-12T00:53:43.293Z,95409.00
2018-07-12T00:56:12.745Z,95409.00
2018-07-12T00:58:42.057Z,95410.00
2018-07-12T01:01:11.336Z,95410.00
2018-07-12T01:03:40.717Z,95411.00
2018-07-12T01:06:10.217Z,95418.00
2018-07-12T01:08:39.326Z,95413.00
2018-07-12T01:11:08.640Z,95411.00
2018-07-12T01:13:37.936Z,95413.00
2018-07-12T01:16:07.200Z,95417.00
2018-07-12T01:18:36.893Z,95416.00
2018-07-12T01:21:06.185Z,95409.00
2018-07-12T01:23:35.518Z,95410.00
2018-07-12T01:26:05.337Z,95412.00
2018-07-12T01:28:34.689Z,95410.00
2018-07-12T01:31:03.965Z,95409.00
2018-07-12T01:33:33.258Z,95406.00
2018-07-12T01:36:02.527Z,95402.00
2018-07-12T01:38:31.835Z,95407.00
2018-07-12T01:41:01.209Z,95407.00
2018-07-12T01:43:30.533Z,95406.00
2018-07-12T01:45:59.802Z,95414.00
2018-07-12T01:48:29.198Z,95418.00
2018-07-12T01:50:58.504Z,95416.00
2018-07-12T01:53:27.779Z,95413.00
2018-07-12T01:55:57.091Z,95420.00
2018-07-12T01:58:26.397Z,95420.00
2018-07-12T02:00:55.647Z,95416.00
2018-07-12T02:03:24.957Z,95409.00
2018-07-12T02:05:54.253Z,95405.00
2018-07-12T02:08:23.500Z,95410.00
2018-07-12T02:10:52.816Z,95413.00
2018-07-12T02:13:22.113Z,95411.00
2018-07-12T02:15:51.383Z,95414.00
2018-07-12T02:18:20.677Z,95405.00
2018-07-12T02:20:49.962Z,95405.00
2018-07-12T02:23:19.260Z,95406.00
2018-07-12T02:25:48.644Z,95408.00
2018-07-12T02:28:17.988Z,95401.00
2018-07-12T02:30:47.549Z,95400.00
2018-07-12T02:33:17.200Z,95407.00
2018-07-12T02:35:46.522Z,95404.00
2018-07-12T02:38:16.529Z,95409.00
2018-07-12T02:40:45.819Z,95401.00
2018-07-12T02:43:15.242Z,95406.00
2018-07-12T02:45:44.832Z,95409.00
2018-07-12T02:48:14.021Z,95405.00
2018-07-12T02:50:43.287Z,95401.00
2018-07-12T02:53:12.557Z,95399.00
2018-07-12T02:55:41.902Z,95401.00
2018-07-12T02:58:11.453Z,95400.00
2018-07-12T03:00:40.782Z,95394.00
2018-07-12T03:03:10.102Z,95389.00
2018-07-12T03:05:39.402Z,95390.00
2018-07-12T03:08:08.658Z,95386.00
2018-07-12T03:10:38.275Z,95390.00
2018-07-12T03:13:07.437Z,95382.00
2018-07-12T03:15:36.748Z,95386.00
2018-07-12T03:18:06.088Z,95387.00
2018-07-12T03:20:35.962Z,95395.00
2018-07-12T03:23:05.759Z,95399.00
2018-07-12T03:25:35.592Z,95404.00
2018-07-12T03:28:04.835Z,95402.00
2018-07-12T03:30:34.101Z,95399.00
2018-07-12T03:33:03.426Z,95401.00
2018-07-12T03:35:32.740Z,95403.00
2018-07-12T03:38:02.024Z,95407.00
2018-07-12T03:40:31.428Z,95408.00
2018-07-12T03:43:00.716Z,95406.00
2018-07-12T03:45:30.372Z,95401.00
2018-07-12T03:47:59.631Z,95406.00
2018-07-12T03:50:28.902Z,95406.00
2018-07-12T03:52:58.305Z,95410.00
2018-07-12T03:55:27.641Z,95408.00
2018-07-12T03:57:56.914Z,95408.00
2018-07-12T04:00:26.190Z,95407.00
2018-07-12T04:02:55.576Z,95401.00
2018-07-12T04:05:25.198Z,95407.00
2018-07-12T04:07:54.502Z,95404.00
2018-07-12T04:10:23.972Z,95405.00
2018-07-12T04:12:53.585Z,95405.00
2018-07-12T04:15:22.882Z,95406.00
2018-07-12T04:17:52.202Z,95409.00
2018-07-12T04:20:21.817Z,95414.00
2018-07-12T04:22:51.079Z,95414.00
2018-07-12T04:25:20.388Z,95412.00
2018-07-12T04:27:49.686Z,95414.00
2018-07-12T04:30:18.934Z,95414.00
2018-07-12T04:32:48.227Z,95418.00
2018-07-12T04:35:17.457Z,95412.00
2018-07-12T04:37:46.972Z,95413.00
2018-07-12T04:40:16.149Z,95413.00
2018-07-12T04:42:45.440Z,95406.00
2018-07-12T04:45:14.746Z,95404.00
2018-07-12T04:47:44.065Z,95406.00
2018-07-12T04:50:13.396Z,95406.00
2018-07-12T04:52:43.012Z,95413.00
2018-07-12T04:55:12.117Z,95415.00
2018-07-12T04:57:41.446Z,95416.00
2018-07-12T05:00:11.177Z,95419.00
2018-07-12T05:02:40.754Z,95414.00
2018-07-12T05:05:09.850Z,95412.00
2018-07-12T05:07:39.457Z,95411.00
2018-07-12T05:10:08.802Z,95414.00
2018-07-12T05:12:38.057Z,95410.00
2018-07-12T05:15:07.374Z,95412.00
2018-07-12T05:17:36.775Z,95413.00
2018-07-12T05:20:06.155Z,95411.00
2018-07-12T05:22:35.702Z,95415.00
2018-07-12T05:25:05.048Z,95420.00
2018-07-12T05:27:34.768Z,95424.00
2018-07-12T05:30:04.204Z,95423.00
2018-07-12T05:32:33.543Z,95425.00
2018-07-12T05:35:02.797Z,95426.00
2018-07-12T05:37:34.277Z,95426.00
2018-07-12T05:40:05.821Z,95427.00
2018-07-12T05:42:37.368Z,95429.00
2018-07-12T05:45:09.064Z,95424.00
2018-07-12T05:47:40.512Z,95432.00
2018-07-12T05:50:12.294Z,95430.00
2018-07-12T05:52:44.073Z,95432.00
2018-07-12T05:55:15.773Z,95429.00
2018-07-12T05:57:47.517Z,95433.00
2018-07-12T06:00:19.403Z,95425.00
2018-07-12T06:02:51.187Z,95427.00
2018-07-12T06:05:23.221Z,95426.00
2018-07-12T06:08:02.058Z,95423.00
2018-07-12T06:10:33.905Z,95423.00
2018-07-12T06:13:05.777Z,95422.00
2018-07-12T06:15:37.680Z,95422.00
2018-07-12T06:18:09.452Z,95427.00
2018-07-12T06:20:41.438Z,95425.00
2018-07-12T06:23:13.196Z,95426.00
2018-07-12T06:25:44.887Z,95430.00
2018-07-12T06:28:16.802Z,95424.00
2018-07-12T06:30:48.134Z,95428.00
2018-07-12T06:33:19.694Z,95435.00
2018-07-12T06:35:51.436Z,95436.00
2018-07-12T06:38:23.250Z,95436.00
2018-07-12T06:40:55.436Z,95440.00
2018-07-12T06:43:27.360Z,95436.00
2018-07-12T06:45:59.263Z,95429.00
2018-07-12T06:48:31.083Z,95426.00
2018-07-12T06:51:02.907Z,95425.00
2018-07-12T06:53:34.767Z,95426.00
2018-07-12T06:56:06.559Z,95420.00
2018-07-12T06:58:38.489Z,95421.00
2018-07-12T07:01:10.466Z,95426.00
2018-07-12T07:03:42.397Z,95428.00
2018-07-12T07:06:14.624Z,95425.00
2018-07-12T07:08:47.186Z,95421.00
2018-07-12T07:11:18.994Z,95416.00
2018-07-12T07:13:51.072Z,95420.00
2018-07-12T07:16:22.929Z,95408.00
2018-07-12T07:18:55.177Z,95412.00
2018-07-12T07:21:27.430Z,95409.00
2018-07-12T07:23:59.261Z,95410.00
2018-07-12T07:26:31.101Z,95409.00
2018-07-12T07:29:02.992Z,95404.00
2018-07-12T07:31:34.788Z,95404.00
2018-07-12T07:34:06.727Z,95398.00
2018-07-12T07:36:38.610Z,95401.00
2018-07-12T07:39:11.027Z,95398.00
2018-07-12T07:41:42.786Z,95396.00
2018-07-12T07:44:14.619Z,95393.00
2018-07-12T07:46:46.676Z,95393.00
2018-07-12T07:49:19.262Z,95399.00
2018-07-12T07:51:51.126Z,95394.00
2018-07-12T07:54:23.101Z,95393.00
2018-07-12T07:56:54.865Z,95392.00
2018-07-12T07:59:27.030Z,95388.00
2018-07-12T08:01:58.861Z,95388.00
2018-07-12T08:04:30.719Z,95381.00
2018-07-12T08:07:02.434Z,95382.00
2018-07-12T08:09:34.892Z,95384.00
2018-07-12T08:12:07.096Z,95378.00
2018-07-12T08:14:38.973Z,95375.00
2018-07-12T08:17:10.696Z,95374.00
2018-07-12T08:19:42.557Z,95366.00
2018-07-12T08:22:14.573Z,95362.00
2018-07-12T08:24:46.487Z,95354.00
2018-07-12T08:27:18.746Z,95358.00
2018-07-12T08:29:50.717Z,95353.00
2018-07-12T08:32:22.576Z,95345.00
2018-07-12T08:34:54.395Z,95341.00
2018-07-12T08:37:26.182Z,95336.00
2018-07-12T08:39:58.133Z,95338.00
2018-07-12T08:42:29.960Z,95336.00
2018-07-12T08:45:01.636Z,95334.00
2018-07-12T08:47:33.445Z,95336.00
2018-07-12T08:50:05.264Z,95337.00
2018-07-12T08:52:37.048Z,95334.00
2018-07-12T08:55:09.028Z,95333.00
2018-07-12T08:57:40.426Z,95333.00
2018-07-12T09:00:12.108Z,95325.00
2018-07-12T09:02:44.170Z,95326.00
2018-07-12T09:05:16.108Z,95326.00
2018-07-12T09:07:47.922Z,95326.00
2018-07-12T09:10:19.897Z,95320.00
2018-07-12T09:12:51.837Z,95319.00
2018-07-12T09:15:24.886Z,95315.00
2018-07-12T09:17:57.717Z,95313.00
2018-07-12T09:20:29.714Z,95310.00
2018-07-12T09:23:01.494Z,95307.00
2018-07-12T09:25:33.976Z,95311.00
2018-07-12T09:28:05.794Z,95308.00
2018-07-12T09:30:37.832Z,95305.00
2018-07-12T09:33:09.733Z,95301.00
2018-07-12T09:35:41.534Z,95302.00
2018-07-12T09:38:35.682Z,95302.00
2018-07-12T09:41:07.837Z,95298.00
2018-07-12T09:43:40.260Z,95304.00
2018-07-12T09:46:12.258Z,95303.00
2018-07-12T09:48:48.329Z,95302.00
2018-07-12T09:51:20.161Z,95297.00
2018-07-12T09:53:51.985Z,95294.00
2018-07-12T09:56:28.792Z,95293.00
2018-07-12T09:59:00.652Z,95292.00
2018-07-12T10:01:37.565Z,95292.00
2018-07-12T10:04:09.641Z,95292.00
2018-07-12T10:06:46.674Z,95291.00
2018-07-12T10:09:23.625Z,95287.00
2018-07-12T10:12:00.509Z,95284.00
2018-07-12T10:14:37.753Z,95288.00
2018-07-12T10:17:17.401Z,95288.00
2018-07-12T10:19:49.383Z,95294.00
2018-07-12T10:22:21.393Z,95288.00
2018-07-12T10:24:54.903Z,95283.00
2018-07-12T10:27:27.078Z,95277.00
2018-07-12T10:29:59.849Z,95275.00
2018-07-12T10:32:31.717Z,95277.00
2018-07-12T10:35:03.460Z,95271.00
2018-07-12T10:37:35.499Z,95269.00
2018-07-12T10:40:07.273Z,95260.00
2018-07-12T10:42:39.070Z,95261.00
2018-07-12T10:45:10.976Z,95263.00
2018-07-12T10:47:42.792Z,95261.00
2018-07-12T10:50:14.595Z,95259.00
2018-07-12T10:52:46.362Z,95254.00
2018-07-12T10:55:18.191Z,95252.00
2018-07-12T10:57:50.023Z,95257.00
2018-07-12T11:00:22.385Z,95257.00
2018-07-12T11:02:54.147Z,95254.00
2018-07-12T11:05:26.140Z,95250.00
2018-07-12T11:07:58.106Z,95252.00
2018-07-12T11:10:29.984Z,95246.00
2018-07-12T11:13:19.884Z,95245.00
2018-07-12T11:15:51.752Z,95242.00
2018-07-12T11:18:23.624Z,95247.00
2018-07-12T11:20:55.407Z,95245.00
2018-07-12T11:23:27.473Z,95244.00
2018-07-12T11:25:59.171Z,95244.00
2018-07-12T11:28:31.074Z,95244.00
2018-07-12T11:31:03.302Z,95244.00
2018-07-12T11:33:39.010Z,95248.00
2018-07-12T11:36:11.076Z,95244.00
2018-07-12T11:38:44.083Z,95244.00
2018-07-12T11:41:16.009Z,95244.00
2018-07-12T11:43:47.705Z,95241.00
2018-07-12T11:46:19.860Z,95239.00
2018-07-12T11:48:52.347Z,95237.00
2018-07-12T11:51:24.206Z,95242.00
2018-07-12T11:53:56.082Z,95240.00
2018-07-12T11:56:27.919Z,95231.00
2018-07-12T11:58:59.713Z,95241.00
2018-07-12T12:01:31.493Z,95245.00
2018-07-12T12:04:03.707Z,95240.00
2018-07-12T12:06:36.278Z,95242.00
2018-07-12T12:09:08.654Z,95237.00
2018-07-12T12:11:40.430Z,95236.00
2018-07-12T12:14:12.373Z,95238.00
2018-07-12T12:16:44.186Z,95235.00
2018-07-12T12:19:16.140Z,95237.00
2018-07-12T12:21:48.031Z,95233.00
2018-07-12T12:24:19.857Z,95236.00
2018-07-12T12:26:51.706Z,95234.00
2018-07-12T12:29:24.017Z,95236.00
2018-07-12T12:31:55.366Z,95235.00
2018-07-12T12:34:27.121Z,95233.00
2018-07-12T12:36:59.021Z,95232.00
2018-07-12T12:39:30.862Z,95234.00
2018-07-12T12:42:02.899Z,95227.00
2018-07-12T12:44:34.757Z,95228.00
2018-07-12T12:47:06.661Z,95227.00
2018-07-12T12:49:38.556Z,95231.00
2018-07-12T12:52:10.294Z,95226.00
2018-07-12T12:54:42.415Z,95223.00
2018-07-12T12:57:14.113Z,95224.00
2018-07-12T12:59:46.062Z,95223.00
2018-07-12T13:02:18.080Z,95232.00
2018-07-12T13:04:50.079Z,95231.00
2018-07-12T13:07:21.876Z,95236.00
2018-07-12T13:09:53.723Z,95226.00
2018-07-12T13:12:25.454Z,95226.00
2018-07-12T13:14:58.172Z,95224.00
2018-07-12T13:17:29.984Z,95229.00
2018-07-12T13:20:01.941Z,95231.00
2018-07-12T13:22:34.739Z,95229.00
2018-07-12T13:25:07.088Z,95235.00
2018-07-12T13:27:39.316Z,95239.00
2018-07-12T13:30:11.211Z,95228.00
2018-07-12T13:32:43.249Z,95241.00
2018-07-12T13:35:15.096Z,95242.00
2018-07-12T13:37:46.916Z,95238.00
2018-07-12T13:40:18.758Z,95240.00
2018-07-12T13:42:50.534Z,95235.00
2018-07-12T13:45:22.274Z,95245.00
2018-07-12T13:47:54.257Z,95241.00
2018-07-12T13:50:26.250Z,95241.00
2018-07-12T13:52:58.186Z,95238.00
2018-07-12T13:55:30.162Z,95240.00
2018-07-12T13:58:01.975Z,95236.00
2018-07-12T14:00:33.859Z,95233.00
2018-07-12T14:03:05.709Z,95230.00
2018-07-12T14:05:37.873Z,95224.00
2018-07-12T14:08:09.717Z,95230.00
2018-07-12T14:10:41.617Z,95235.00
2018-07-12T14:13:13.625Z,95227.00
2018-07-12T14:15:45.739Z,95222.00
2018-07-12T14:18:17.561Z,95226.00
2018-07-12T14:20:49.362Z,95223.00
2018-07-12T14:23:21.182Z,95230.00
2018-07-12T14:25:53.629Z,95226.00
2018-07-12T14:28:25.581Z,95227.00
2018-07-12T14:30:57.360Z,95226.00
2018-07-12T14:33:29.621Z,95221.00
2018-07-12T14:36:01.544Z,95232.00
2018-07-12T14:38:33.404Z,95226.00
2018-07-12T14:41:05.238Z,95221.00
2018-07-12T14:43:37.231Z,95228.00
2018-07-12T14:46:09.518Z,95229.00
2018-07-12T14:48:41.656Z,95221.00
2018-07-12T14:51:13.451Z,95221.00
2018-07-12T14:53:45.249Z,95225.00
2018-07-12T14:56:17.095Z,95222.00
2018-07-12T14:58:48.936Z,95230.00
2018-07-12T15:01:20.719Z,95230.00
2018-07-12T15:03:52.993Z,95229.00
2018-07-12T15:06:24.884Z,95234.00
2018-07-12T15:09:00.533Z,95229.00
2018-07-12T15:11:32.447Z,95227.00
2018-07-12T15:14:04.633Z,95232.00
2018-07-12T15:16:36.617Z,95241.00
2018-07-12T15:19:08.555Z,95239.00
2018-07-12T15:21:40.925Z,95244.00
2018-07-12T15:24:12.775Z,95245.00
2018-07-12T15:26:44.736Z,95248.00
2018-07-12T15:29:16.565Z,95247.00
2018-07-12T15:31:48.917Z,95247.00
2018-07-12T15:34:21.063Z,95250.00
2018-07-12T15:36:53.323Z,95250.00
2018-07-12T15:39:25.717Z,95245.00
2018-07-12T15:41:57.665Z,95244.00
2018-07-12T15:44:29.509Z,95242.00
2018-07-12T15:47:01.804Z,95243.00
2018-07-12T15:49:33.795Z,95240.00
2018-07-12T15:52:05.873Z,95246.00
2018-07-12T15:54:37.676Z,95249.00
2018-07-12T15:57:09.559Z,95247.00
2018-07-12T15:59:42.234Z,95254.00
2018-07-12T16:02:14.303Z,95253.00
2018-07-12T16:04:46.136Z,95256.00
2018-07-12T16:07:18.108Z,95260.00
2018-07-12T16:09:50.538Z,95265.00
2018-07-12T16:12:22.736Z,95270.00
2018-07-12T16:14:54.633Z,95267.00
2018-07-12T16:17:26.725Z,95270.00
2018-07-12T16:19:59.367Z,95273.00
2018-07-12T16:22:31.492Z,95273.00
2018-07-12T16:25:03.711Z,95268.00
2018-07-12T16:27:35.898Z,95264.00
2018-07-12T16:30:08.475Z,95265.00
2018-07-12T16:32:40.510Z,95272.00
2018-07-12T16:35:12.411Z,95267.00
2018-07-12T16:37:44.294Z,95270.00
2018-07-12T16:40:16.199Z,95271.00
2018-07-12T16:42:48.151Z,95274.00
2018-07-12T16:45:20.177Z,95274.00
2018-07-12T16:47:52.031Z,95275.00
2018-07-12T16:50:23.781Z,95283.00
2018-07-12T16:52:55.973Z,95282.00
2018-07-12T16:55:27.842Z,95288.00
2018-07-12T16:57:59.777Z,95296.00
2018-07-12T17:00:31.595Z,95299.00
2018-07-12T17:03:03.655Z,95306.00
2018-07-12T17:05:35.630Z,95308.00
2018-07-12T17:08:07.687Z,95307.00
2018-07-12T17:10:39.661Z,95311.00
2018-07-12T17:13:11.725Z,95316.00
2018-07-12T17:15:44.620Z,95315.00
2018-07-12T17:18:16.556Z,95309.00
2018-07-12T17:20:48.530Z,95322.00
2018-07-12T17:23:20.479Z,95322.00
2018-07-12T17:25:52.616Z,95325.00
2018-07-12T17:28:24.475Z,95326.00
2018-07-12T17:30:56.066Z,95320.00
2018-07-12T17:33:27.970Z,95323.00
2018-07-12T17:35:59.996Z,95333.00
2018-07-12T17:38:31.857Z,95329.00
2018-07-12T17:41:03.892Z,95330.00
2018-07-12T17:43:35.973Z,95334.00
2018-07-12T17:46:08.139Z,95339.00
2018-07-12T17:48:39.996Z,95341.00
2018-07-12T17:51:11.904Z,95342.00
2018-07-12T17:53:43.776Z,95343.00
2018-07-12T17:56:15.874Z,95352.00
2018-07-12T17:58:47.826Z,95346.00
2018-07-12T18:01:19.758Z,95347.00
2018-07-12T18:03:51.677Z,95352.00
2018-07-12T18:06:23.849Z,95355.00
2018-07-12T18:08:56.644Z,95357.00
2018-07-12T18:11:28.819Z,95361.00
2018-07-12T18:14:00.856Z,95361.00
2018-07-12T18:16:32.952Z,95362.00
2018-07-12T18:19:05.006Z,95361.00
2018-07-12T18:21:37.228Z,95368.00
2018-07-12T18:24:09.327Z,95367.00
2018-07-12T18:26:41.575Z,95373.00
2018-07-12T18:29:13.745Z,95377.00
2018-07-12T18:31:45.947Z,95381.00
2018-07-12T18:34:18.199Z,95383.00
2018-07-12T18:36:50.601Z,95388.00
2018-07-12T18:39:22.771Z,95390.00
2018-07-12T18:41:55.477Z,95397.00
2018-07-12T18:44:27.803Z,95401.00
2018-07-12T18:47:00.276Z,95407.00
2018-07-12T18:49:32.597Z,95408.00
2018-07-12T18:52:05.311Z,95408.00
2018-07-12T18:54:37.659Z,95412.00
2018-07-12T18:57:10.218Z,95414.00
2018-07-12T18:59:42.453Z,95416.00
2018-07-12T19:02:14.776Z,95421.00
2018-07-12T19:04:46.867Z,95423.00
2018-07-12T19:07:18.907Z,95419.00
2018-07-12T19:09:50.907Z,95424.00
2018-07-12T19:12:23.316Z,95425.00
2018-07-12T19:14:55.582Z,95439.00
2018-07-12T19:17:27.556Z,95440.00
2018-07-12T19:20:00.443Z,95437.00
2018-07-12T19:22:32.533Z,95443.00
2018-07-12T19:25:04.849Z,95442.00
2018-07-12T19:27:37.162Z,95444.00
2018-07-12T19:30:09.719Z,95451.00
2018-07-12T19:32:43.182Z,95454.00
2018-07-12T19:35:15.508Z,95452.00
2018-07-12T19:37:47.712Z,95459.00
2018-07-12T19:40:20.900Z,95466.00
2018-07-12T19:42:54.863Z,95472.00
2018-07-12T19:45:28.599Z,95473.00
2018-07-12T19:48:00.563Z,95475.00
2018-07-12T19:50:32.920Z,95481.00
2018-07-12T19:53:05.239Z,95486.00
2018-07-12T19:55:37.396Z,95484.00
2018-07-12T19:58:09.547Z,95485.00
2018-07-12T20:00:41.722Z,95484.00
2018-07-12T20:03:14.192Z,95477.00
2018-07-12T20:05:46.507Z,95483.00
2018-07-12T20:08:19.632Z,95482.00
2018-07-12T20:10:51.078Z,95488.00
2018-07-12T20:13:23.371Z,95498.00
2018-07-12T20:15:55.551Z,95499.00
2018-07-12T20:18:27.523Z,95501.00
2018-07-12T20:20:59.552Z,95502.00
2018-07-12T20:23:31.552Z,95507.00
2018-07-12T20:26:03.563Z,95500.00
2018-07-12T20:28:36.042Z,95506.00
2018-07-12T20:31:09.015Z,95505.00
2018-07-12T20:33:41.098Z,95502.00
2018-07-12T20:36:14.031Z,95511.00
2018-07-12T20:38:45.470Z,95510.00
2018-07-12T20:41:18.008Z,95504.00
2018-07-12T20:43:50.430Z,95511.00
2018-07-12T20:46:22.451Z,95513.00
2018-07-12T20:48:54.757Z,95511.00
2018-07-12T20:51:26.760Z,95512.00
2018-07-12T20:53:59.151Z,95515.00
2018-07-12T20:56:30.894Z,95518.00
2018-07-12T20:59:03.079Z,95521.00
2018-07-12T21:01:35.962Z,95525.00
2018-07-12T21:04:08.696Z,95522.00
2018-07-12T21:06:40.850Z,95528.00
2018-07-12T21:09:13.887Z,95530.00
2018-07-12T21:11:46.280Z,95533.00
2018-07-12T21:14:18.650Z,95541.00
2018-07-12T21:16:50.570Z,95534.00
2018-07-12T21:19:22.281Z,95534.00
2018-07-12T21:21:54.201Z,95535.00
2018-07-12T21:24:26.008Z,95532.00
2018-07-12T21:26:57.917Z,95540.00
2018-07-12T21:29:29.733Z,95535.00
2018-07-12T21:32:01.612Z,95536.00
2018-07-12T21:34:33.277Z,95539.00
2018-07-12T21:37:05.010Z,95544.00
2018-07-12T21:39:36.718Z,95542.00
2018-07-12T21:42:08.050Z,95540.00
2018-07-12T21:44:39.861Z,95541.00
2018-07-12T21:47:11.934Z,95534.00
2018-07-12T21:49:44.166Z,95538.00
2018-07-12T21:52:15.906Z,95540.00
2018-07-12T21:54:47.759Z,95542.00
2018-07-12T21:57:19.527Z,95544.00
2018-07-12T21:59:51.467Z,95545.00
2018-07-12T22:02:23.274Z,95544.00
2018-07-12T22:04:55.261Z,95544.00
2018-07-12T22:08:35.833Z,95540.00
2018-07-12T22:11:08.098Z,95545.00
2018-07-12T22:13:39.869Z,95545.00
2018-07-12T22:16:11.806Z,95546.00
2018-07-12T22:18:43.698Z,95548.00
2018-07-12T22:21:15.453Z,95551.00
2018-07-12T22:23:47.366Z,95556.00
2018-07-12T22:26:19.136Z,95556.00
2018-07-12T22:28:51.013Z,95560.00
2018-07-12T22:31:22.771Z,95560.00
2018-07-12T22:33:54.631Z,95559.00
2018-07-12T22:36:26.662Z,95559.00
2018-07-12T22:38:58.477Z,95562.00
2018-07-12T22:41:30.211Z,95561.00
2018-07-12T22:44:02.728Z,95557.00
2018-07-12T22:46:34.526Z,95566.00
2018-07-12T22:49:06.868Z,95561.00
2018-07-12T22:51:38.644Z,95562.00
2018-07-12T22:54:10.429Z,95568.00
2018-07-12T22:56:42.772Z,95568.00
2018-07-12T22:59:14.505Z,95569.00
2018-07-12T23:01:46.453Z,95572.00
2018-07-12T23:04:18.208Z,95574.00
2018-07-12T23:06:49.973Z,95568.00
2018-07-12T23:09:21.709Z,95572.00
2018-07-12T23:11:53.506Z,95577.00
2018-07-12T23:14:25.324Z,95574.00
2018-07-12T23:16:57.103Z,95573.00
2018-07-12T23:19:29.449Z,95573.00
2018-07-12T23:22:01.221Z,95574.00
2018-07-12T23:24:33.948Z,95575.00
2018-07-12T23:27:05.698Z,95575.00
2018-07-12T23:29:37.463Z,95574.00
2018-07-12T23:32:09.293Z,95582.00
2018-07-12T23:34:41.120Z,95575.00
2018-07-12T23:37:12.779Z,95574.00
2018-07-12T23:39:44.665Z,95577.00
2018-07-12T23:42:16.453Z,95574.00
2018-07-12T23:44:48.268Z,95571.00
2018-07-12T23:47:20.067Z,95571.00
2018-07-12T23:49:51.873Z,95573.00
2018-07-12T23:52:23.825Z,95577.00
2018-07-12T23:54:55.651Z,95573.00
2018-07-12T23:57:27.418Z,95574.00
2018-07-12T23:59:59.328Z,95579.00
